Time;durP1;ratioP1;P1;durP2;ratioP2;P2;SDS_P1;SDS_P2;PMS_P1;PMS_P2;Temp;Humidity;BMP_temperature;BMP_pressure;BME280_temperature;BME280_humidity;BME280_pressure;Samples;Min_cycle;Max_cycle;Signal;HPM_P1;HPM_P2
2022/04/26 03:37:17;;;;;;;5.30;4.80;;;;;;;9.03;69.08;101317.75;3573494;39;20411;-65
2022/04/26 03:39:44;;;;;;;6.97;4.90;;;;;;;9.09;68.90;101326.47;3572899;40;20065;-66
2022/04/26 03:42:11;;;;;;;8.45;5.35;;;;;;;9.02;68.82;101317.84;3584164;40;20416;-66
2022/04/26 03:44:37;;;;;;;9.18;5.55;;;;;;;9.04;69.33;101330.25;3580829;39;20052;-65
2022/04/26 03:47:03;;;;;;;12.45;5.60;;;;;;;9.00;69.94;101323.25;3585416;39;20609;-66
2022/04/26 03:49:29;;;;;;;5.72;4.45;;;;;;;8.97;69.99;101312.69;3583604;39;20052;-65
2022/04/26 03:51:55;;;;;;;13.60;5.53;;;;;;;9.02;69.34;101336.63;3566342;39;20107;-65
2022/04/26 03:54:23;;;;;;;7.60;5.65;;;;;;;8.99;69.34;101332.25;3581654;40;20051;-65
2022/04/26 03:56:48;;;;;;;8.82;5.30;;;;;;;9.05;70.54;101342.69;3580114;39;20072;-65
2022/04/26 03:59:14;;;;;;;6.72;5.38;;;;;;;9.00;69.87;101331.31;3583968;40;20064;-65
2022/04/26 04:01:40;;;;;;;8.80;5.65;;;;;;;9.02;70.20;101337.47;3582163;40;20401;-64
2022/04/26 04:04:06;;;;;;;9.18;5.65;;;;;;;9.03;70.19;101339.22;3583988;40;20097;-65
2022/04/26 04:06:32;;;;;;;11.20;5.30;;;;;;;9.00;70.54;101342.03;3569808;39;20125;-65
2022/04/26 04:08:58;;;;;;;6.68;5.47;;;;;;;9.02;70.34;101341.97;3617590;22;20368;-63
2022/04/26 04:11:24;;;;;;;9.48;5.97;;;;;;;9.01;70.35;101342.94;3590832;39;20477;-63
2022/04/26 04:13:50;;;;;;;10.10;5.97;;;;;;;8.95;70.69;101344.06;3589458;39;20051;-63
2022/04/26 04:16:16;;;;;;;9.60;5.82;;;;;;;8.97;71.27;101344.84;3591909;39;20132;-63
2022/04/26 04:21:26;;;;;;;9.90;5.97;;;;;;;9.01;70.79;101362.56;3580562;40;20144;-63
2022/04/26 04:23:51;;;;;;;9.88;6.15;;;;;;;8.99;71.61;101358.22;3565210;39;20691;-63
2022/04/26 04:26:17;;;;;;;9.07;6.18;;;;;;;9.05;70.94;101361.47;3581650;39;20070;-63
2022/04/26 04:28:43;;;;;;;6.85;5.55;;;;;;;8.91;70.94;101338.91;3579976;39;20066;-63
2022/04/26 04:31:10;;;;;;;8.52;5.97;;;;;;;9.03;70.85;101368.69;3582993;40;20354;-63
2022/04/26 04:33:37;;;;;;;7.13;5.75;;;;;;;8.86;70.72;101331.09;3580439;40;20095;-63
2022/04/26 04:36:03;;;;;;;8.95;6.00;;;;;;;9.03;71.20;101366.03;3582548;40;20153;-63
2022/04/26 04:38:29;;;;;;;13.13;7.75;;;;;;;8.99;70.68;101361.75;3572029;39;20074;-63
2022/04/26 04:40:55;;;;;;;9.65;6.35;;;;;;;9.02;71.73;101366.09;3574305;39;20621;-64
2022/04/26 04:43:20;;;;;;;9.40;6.22;;;;;;;9.03;71.53;101376.75;3582573;40;20063;-64
2022/04/26 04:45:47;;;;;;;10.80;6.75;;;;;;;8.98;70.97;101368.06;3580169;40;20635;-63
2022/04/26 04:48:13;;;;;;;9.10;5.95;;;;;;;8.99;71.67;101366.25;3581726;39;20060;-63
2022/04/26 04:50:39;;;;;;;8.30;5.97;;;;;;;9.02;71.65;101385.75;3580784;40;20057;-64
2022/04/26 04:53:05;;;;;;;8.18;6.25;;;;;;;9.05;71.56;101390.09;3575958;39;20365;-64
2022/04/26 04:55:31;;;;;;;9.35;6.25;;;;;;;9.04;71.80;101394.59;3573232;39;20059;-62
2022/04/26 04:57:56;;;;;;;8.60;6.05;;;;;;;9.06;70.99;101394.50;3580099;40;20079;-61
2022/04/26 05:00:22;;;;;;;11.20;6.47;;;;;;;9.00;71.72;101392.97;3582340;40;20325;-61
2022/04/26 05:02:47;;;;;;;7.35;6.10;;;;;;;9.05;71.37;101395.47;3579316;39;20059;-62
2022/04/26 05:05:13;;;;;;;9.13;6.60;;;;;;;8.95;71.72;101381.63;3582229;39;20048;-61
2022/04/26 05:07:39;;;;;;;9.73;6.07;;;;;;;9.08;71.13;101411.41;3579962;40;20445;-63
2022/04/26 05:10:07;;;;;;;9.38;6.25;;;;;;;9.11;70.92;101410.41;3564037;39;20071;-61
2022/04/26 05:12:34;;;;;;;8.85;6.13;;;;;;;9.11;71.60;101422.00;3581839;40;20048;-62
2022/04/26 05:15:01;;;;;;;8.93;6.28;;;;;;;9.11;71.16;101422.00;3575176;39;20064;-62
2022/04/26 05:17:28;;;;;;;11.40;6.10;;;;;;;9.12;71.09;101420.19;3581771;39;20169;-62
2022/04/26 05:19:54;;;;;;;9.98;6.47;;;;;;;9.05;71.44;101412.41;3580421;39;20062;-62
2022/04/26 05:22:20;;;;;;;8.48;5.78;;;;;;;9.11;71.29;101424.69;3582112;40;20075;-62
2022/04/26 05:24:58;;;;;;;8.40;6.13;;;;;;;9.16;71.48;101424.47;3576818;39;20095;-62
2022/04/26 05:27:26;;;;;;;8.30;6.40;;;;;;;9.16;71.12;101429.81;3577024;39;20121;-62
2022/04/26 05:29:53;;;;;;;9.00;6.88;;;;;;;9.13;71.17;101432.66;3580891;40;20082;-62
2022/04/26 05:32:25;;;;;;;7.20;6.47;;;;;;;9.17;71.33;101434.28;3570675;40;20060;-62
2022/04/26 05:35:00;;;;;;;9.00;6.57;;;;;;;9.20;70.97;101442.19;3582623;40;20054;-62
2022/04/26 05:37:27;;;;;;;7.80;6.15;;;;;;;9.21;71.77;101433.19;3583035;39;20063;-61
2022/04/26 05:39:55;;;;;;;12.68;6.70;;;;;;;9.19;71.29;101424.31;3574088;39;20076;-62
2022/04/26 05:42:20;;;;;;;9.43;6.20;;;;;;;9.25;71.25;101435.63;3568665;39;20079;-62
2022/04/26 05:44:46;;;;;;;10.85;6.40;;;;;;;9.32;71.78;101441.56;3582101;40;20075;-62
2022/04/26 05:47:12;;;;;;;10.02;6.57;;;;;;;9.35;71.25;101433.38;3579860;40;20048;-62
2022/04/26 05:49:38;;;;;;;8.68;6.13;;;;;;;9.39;71.41;101436.81;3580734;40;20286;-62
2022/04/26 05:52:04;;;;;;;8.35;6.22;;;;;;;9.40;71.63;101435.88;3579251;40;20067;-62
2022/04/26 05:54:31;;;;;;;11.15;6.88;;;;;;;9.42;70.65;101440.22;3575047;39;20068;-61
2022/04/26 05:56:57;;;;;;;11.55;6.70;;;;;;;9.44;70.96;101440.13;3571466;39;20126;-63
2022/04/26 05:59:24;;;;;;;10.60;6.78;;;;;;;9.49;70.94;101449.72;3579864;40;20648;-63
2022/04/26 06:01:51;;;;;;;10.75;6.68;;;;;;;9.42;71.62;101429.50;3574952;39;20059;-63
2022/04/26 06:04:18;;;;;;;10.65;7.15;;;;;;;9.60;70.96;101451.00;3579404;40;20044;-63
2022/04/26 06:06:44;;;;;;;9.65;6.40;;;;;;;9.64;71.10;101448.13;3582088;40;20109;-62
2022/04/26 06:09:13;;;;;;;10.85;6.95;;;;;;;9.54;70.65;101431.56;3573521;39;20116;-62
2022/04/26 06:11:39;;;;;;;12.27;6.75;;;;;;;9.74;71.24;101460.16;3573333;39;20125;-64
2022/04/26 06:14:05;;;;;;;10.75;6.32;;;;;;;8.99;70.62;101328.72;3577665;40;20044;-62
2022/04/26 06:16:31;;;;;;;10.43;7.05;;;;;;;9.81;70.22;101455.34;3581613;40;20052;-63
2022/04/26 06:18:57;;;;;;;11.77;6.95;;;;;;;9.88;70.59;101462.16;3580013;40;20062;-63
2022/04/26 06:21:22;;;;;;;7.72;6.85;;;;;;;9.92;70.03;101458.38;3580390;40;20192;-63
2022/04/26 06:23:48;;;;;;;13.32;7.25;;;;;;;10.00;71.33;101458.88;3578806;39;20156;-63
2022/04/26 06:26:14;;;;;;;9.65;7.25;;;;;;;9.98;70.67;101446.47;3574820;39;20108;-63
2022/04/26 06:28:40;;;;;;;9.60;6.80;;;;;;;9.94;69.84;101426.94;3574641;39;20078;-64
2022/04/26 06:31:06;;;;;;;10.73;7.18;;;;;;;10.18;69.98;101480.38;3578898;40;20387;-64
2022/04/26 06:33:33;;;;;;;11.07;7.90;;;;;;;10.24;69.84;101472.03;3581928;39;20064;-64
2022/04/26 06:35:58;;;;;;;12.63;7.75;;;;;;;10.28;69.84;101476.34;3584561;39;20093;-64
2022/04/26 06:38:25;;;;;;;12.52;7.65;;;;;;;10.30;69.31;101478.94;3584799;39;20070;-64
2022/04/26 06:40:52;;;;;;;10.90;7.18;;;;;;;10.28;69.39;101479.03;3581462;39;20044;-63
2022/04/26 06:43:19;;;;;;;13.60;7.95;;;;;;;10.28;69.19;101479.03;3570059;39;20802;-64
2022/04/26 06:45:46;;;;;;;11.57;7.32;;;;;;;10.33;69.78;101481.47;3585091;39;20058;-64
2022/04/26 06:48:14;;;;;;;12.15;7.75;;;;;;;10.35;68.97;101483.16;3575777;39;20060;-64
2022/04/26 06:50:42;;;;;;;9.15;7.28;;;;;;;10.38;68.88;101488.38;3586278;40;20395;-64
2022/04/26 06:53:08;;;;;;;14.25;7.50;;;;;;;10.38;68.51;101483.00;3582253;40;20314;-64
2022/04/26 06:55:34;;;;;;;12.07;8.68;;;;;;;10.37;69.16;101497.41;3583625;40;20148;-64
2022/04/26 06:58:00;;;;;;;19.08;8.43;;;;;;;10.38;69.13;101492.88;3578198;39;20090;-64
2022/04/26 07:00:26;;;;;;;16.25;8.75;;;;;;;10.41;68.90;101488.22;3563291;40;20079;-64
2022/04/26 07:02:53;;;;;;;14.05;8.60;;;;;;;10.50;68.95;101496.75;3583491;39;20056;-64
2022/04/26 07:05:19;;;;;;;10.90;8.02;;;;;;;10.53;68.32;101497.50;3583952;40;20667;-63
2022/04/26 07:07:46;;;;;;;12.95;8.40;;;;;;;10.60;68.86;101492.66;3583855;40;20063;-63
2022/04/26 07:10:12;;;;;;;10.88;8.20;;;;;;;10.71;68.58;101492.97;3574586;39;20134;-63
2022/04/26 07:12:37;;;;;;;13.77;8.70;;;;;;;10.82;67.26;101497.81;3577373;39;20837;-63
2022/04/26 07:15:04;;;;;;;16.83;9.10;;;;;;;10.86;67.46;101484.09;3572097;39;20087;-63
2022/04/26 07:17:30;;;;;;;16.25;9.10;;;;;;;11.13;66.89;101500.63;3585898;39;20056;-63
2022/04/26 07:19:58;;;;;;;12.40;8.15;;;;;;;11.39;65.59;101493.81;3583839;39;20386;-64
2022/04/26 07:22:25;;;;;;;12.88;8.55;;;;;;;11.57;64.86;101494.63;3581938;39;20062;-63
2022/04/26 07:24:51;;;;;;;12.00;8.32;;;;;;;11.56;63.73;101495.56;3584614;40;20056;-63
2022/04/26 07:27:16;;;;;;;11.48;7.90;;;;;;;11.53;63.69;101511.91;3577717;39;20267;-63
2022/04/26 07:29:43;;;;;;;13.63;8.88;;;;;;;11.48;64.15;101508.63;3584150;40;20067;-63
2022/04/26 07:32:10;;;;;;;13.02;8.52;;;;;;;11.46;64.31;101506.94;3570332;39;20063;-63
2022/04/26 07:34:36;;;;;;;12.98;8.55;;;;;;;11.46;62.98;101509.66;3578037;39;22102;-63
2022/04/26 07:37:02;;;;;;;12.23;8.05;;;;;;;11.24;62.94;101475.81;3582607;40;20067;-63
2022/04/26 07:39:32;;;;;;;10.68;7.70;;;;;;;11.36;62.84;101487.75;3583954;40;20071;-63
2022/04/26 07:41:57;;;;;;;10.38;7.97;;;;;;;11.59;62.76;101518.78;3580721;40;20052;-63
2022/04/26 07:44:23;;;;;;;14.38;7.97;;;;;;;11.64;62.49;101505.94;3577603;39;21048;-63
2022/04/26 07:46:51;;;;;;;8.85;7.32;;;;;;;11.78;62.54;101522.19;3573891;39;20260;-63
2022/04/26 07:49:19;;;;;;;10.88;7.57;;;;;;;11.80;61.82;101514.03;3580526;40;20675;-62
2022/04/26 07:51:45;;;;;;;10.60;7.55;;;;;;;11.78;60.13;101526.72;3581982;40;20044;-62
2022/04/26 07:54:11;;;;;;;10.30;7.38;;;;;;;11.68;61.14;101510.19;3582000;39;20048;-63
2022/04/26 07:56:37;;;;;;;9.23;6.95;;;;;;;11.83;60.79;101533.59;3581635;40;20051;-62
2022/04/26 07:59:04;;;;;;;13.25;7.20;;;;;;;11.95;61.66;101545.53;3578387;39;20047;-64
2022/04/26 08:01:33;;;;;;;12.32;7.20;;;;;;;11.93;59.66;101530.41;3562192;40;20067;-63
2022/04/26 08:03:59;;;;;;;10.43;7.28;;;;;;;11.95;60.47;101536.56;3575999;39;20114;-62
2022/04/26 08:06:25;;;;;;;10.98;7.05;;;;;;;11.98;60.00;101544.47;3583913;40;20059;-63
2022/04/26 08:08:51;;;;;;;13.00;7.00;;;;;;;12.04;59.56;101549.53;3581833;40;20062;-62
2022/04/26 08:11:17;;;;;;;11.02;6.95;;;;;;;12.05;61.08;101545.88;3571064;40;20055;-62
2022/04/26 08:13:43;;;;;;;9.93;6.45;;;;;;;11.88;59.08;101527.97;3581530;40;20108;-62
2022/04/26 08:16:10;;;;;;;8.23;6.55;;;;;;;11.87;59.86;101520.00;3575243;39;20048;-62
2022/04/26 08:18:37;;;;;;;8.80;6.63;;;;;;;12.11;59.08;101561.69;3573833;39;21761;-63
2022/04/26 08:21:07;;;;;;;10.43;7.35;;;;;;;12.06;59.40;101553.88;3575404;39;20121;-64
2022/04/26 08:27:22;;;;;;;10.27;6.93;;;;;;;12.05;58.34;101551.25;3581969;40;20054;-63
2022/04/26 08:29:07;;;;;;;10.45;6.43;;;;;;;12.27;59.63;101567.09;3578552;39;20066;-63
2022/04/26 08:31:33;;;;;;;9.40;6.32;;;;;;;12.52;59.24;101572.81;3576213;39;20056;-63
2022/04/26 08:33:59;;;;;;;10.35;6.00;;;;;;;12.85;58.51;101569.09;3569781;39;20048;-63
2022/04/26 08:36:25;;;;;;;9.35;6.20;;;;;;;13.20;57.10;101582.31;3573796;39;20070;-63
2022/04/26 08:38:50;;;;;;;9.68;6.15;;;;;;;13.64;56.71;101571.50;3571056;40;20132;-63
2022/04/26 08:41:16;;;;;;;12.68;6.80;;;;;;;14.33;56.44;101576.97;3581909;40;20135;-64
2022/04/26 08:43:41;;;;;;;11.50;6.15;;;;;;;14.96;53.65;101565.56;3583415;40;20043;-63
2022/04/26 08:46:07;;;;;;;10.93;6.25;;;;;;;15.30;51.94;101574.94;3574038;39;20106;-64
2022/04/26 08:51:17;;;;;;;7.45;5.35;;;;;;;14.99;50.27;101584.28;3580877;40;20139;-64
2022/04/26 08:53:44;;;;;;;8.18;5.22;;;;;;;14.78;51.26;101588.44;3582880;40;20064;-63
2022/04/26 08:56:10;;;;;;;10.98;6.13;;;;;;;14.62;51.54;101594.91;3579359;40;20164;-63
2022/04/26 08:58:36;;;;;;;9.52;5.63;;;;;;;14.43;52.80;101594.38;3583574;40;20403;-63
2022/04/26 09:01:24;;;;;;;9.98;5.57;;;;;;;14.31;52.53;101596.03;3568803;39;20075;-63
2022/04/26 09:03:56;;;;;;;9.75;5.57;;;;;;;14.35;52.57;101596.69;3572951;39;20062;-63
2022/04/26 09:06:41;;;;;;;9.50;5.18;;;;;;;14.29;51.85;101591.69;3579442;40;20054;-63
2022/04/26 09:09:17;;;;;;;10.25;5.45;;;;;;;14.41;52.31;101599.00;3578915;40;20103;-63
2022/04/26 09:11:43;;;;;;;10.57;5.25;;;;;;;14.56;53.15;101598.03;3580431;40;20060;-63
2022/04/26 09:14:36;;;;;;;13.38;5.10;;;;;;;14.62;51.28;101592.22;3579906;39;20070;-63
2022/04/26 09:17:11;;;;;;;8.20;5.20;;;;;;;14.83;50.99;101591.72;3575533;39;20429;-64
2022/04/26 09:19:46;;;;;;;8.57;4.80;;;;;;;15.25;50.37;101597.88;3570024;39;20109;-64
2022/04/26 09:22:30;;;;;;;10.18;4.63;;;;;;;15.32;49.07;101577.53;3583192;40;20084;-64
2022/04/26 09:25:14;;;;;;;8.63;4.35;;;;;;;15.70;47.93;101584.84;3583093;40;20066;-64
2022/04/26 09:27:41;;;;;;;7.72;4.35;;;;;;;16.13;47.13;101596.16;3579733;40;20215;-63
2022/04/26 09:30:08;;;;;;;10.77;4.80;;;;;;;16.13;47.58;101595.28;3581994;40;20056;-62
2022/04/26 09:32:49;;;;;;;7.72;4.47;;;;;;;16.29;45.66;101597.75;3575242;39;20048;-63
2022/04/26 09:35:31;;;;;;;5.70;4.13;;;;;;;16.58;46.36;101603.72;3572843;39;20056;-63
2022/04/26 09:37:57;;;;;;;8.93;4.60;;;;;;;16.51;45.24;101606.03;3581517;40;20479;-62
2022/04/26 09:40:32;;;;;;;5.75;4.22;;;;;;;16.35;47.00;101602.72;3574817;39;20044;-64
2022/04/26 09:42:58;;;;;;;9.63;4.57;;;;;;;16.57;44.43;101621.88;3581974;40;20056;-63
2022/04/26 09:45:25;;;;;;;6.93;3.90;;;;;;;16.73;43.43;101629.72;3580768;40;20040;-63
2022/04/26 09:47:57;;;;;;;9.93;3.75;;;;;;;16.82;44.58;101622.78;3568207;39;20064;-63
2022/04/26 09:50:26;;;;;;;5.85;3.75;;;;;;;17.04;42.60;101619.31;3570968;39;20055;-64
2022/04/26 09:52:55;;;;;;;11.30;4.03;;;;;;;17.12;41.23;101611.41;3570280;40;20056;-63
2022/04/26 09:55:21;;;;;;;8.00;3.60;;;;;;;17.12;40.95;101625.00;3580051;39;20048;-65
2022/04/26 09:57:49;;;;;;;6.15;3.70;;;;;;;17.25;40.77;101623.06;3581510;40;20132;-63
2022/04/26 10:00:15;;;;;;;7.20;3.67;;;;;;;17.30;41.36;101626.31;3584621;40;20048;-64
2022/04/26 10:02:53;;;;;;;4.03;3.08;;;;;;;17.48;40.20;101628.59;3577766;39;20771;-64
2022/04/26 10:05:22;;;;;;;5.25;3.45;;;;;;;17.61;39.76;101627.50;3569917;39;20113;-64
2022/04/26 10:07:50;;;;;;;6.78;3.72;;;;;;;17.78;41.40;101625.31;3578183;40;22125;-64
2022/04/26 10:10:20;;;;;;;4.32;3.65;;;;;;;17.94;41.42;101641.28;3602420;22;20395;-65
2022/04/26 10:13:31;;;;;;;6.07;4.13;;;;;;;18.03;42.29;101635.97;3564356;40;20171;-65
2022/04/26 10:15:37;;;;;;;8.80;3.70;;;;;;;17.91;40.97;101636.09;3563496;40;20075;-65
2022/04/26 10:18:33;;;;;;;8.13;3.72;;;;;;;17.82;40.37;101643.13;3564953;40;20053;-65
2022/04/26 10:21:01;;;;;;;8.77;4.28;;;;;;;17.83;42.00;101632.13;3548126;40;20061;-65
2022/04/26 10:23:28;;;;;;;6.65;3.92;;;;;;;17.86;41.67;101645.50;3555556;40;20055;-65
2022/04/26 10:26:22;;;;;;;6.75;3.70;;;;;;;17.92;40.57;101655.03;3556816;40;20049;-64
2022/04/26 10:28:57;;;;;;;;;;;;;;;17.71;40.69;101652.09;3555970;40;20041;-65
2022/04/26 10:31:38;;;;;;;5.40;3.65;;;;;;;17.74;40.77;101657.31;3556837;40;19929;-66
2022/04/26 10:34:23;;;;;;;6.28;3.42;;;;;;;17.69;41.16;101662.22;3550622;40;20049;-65
2022/04/26 10:37:00;;;;;;;6.25;3.80;;;;;;;17.63;39.75;101658.16;3547050;40;20053;-65
2022/04/26 10:39:30;;;;;;;6.32;3.45;;;;;;;17.67;40.74;101660.63;3555209;40;20049;-66
2022/04/26 10:41:58;;;;;;;5.65;3.92;;;;;;;17.61;39.32;101662.84;3556684;40;20087;-65
2022/04/26 10:44:32;;;;;;;6.07;3.50;;;;;;;17.49;39.99;101661.06;3556416;40;20307;-65
2022/04/26 10:47:01;;;;;;;5.47;3.92;;;;;;;17.52;39.60;101666.28;3556845;40;20069;-66
2022/04/26 10:49:32;;;;;;;6.53;3.88;;;;;;;17.48;39.53;101662.06;3550503;40;20675;-64
2022/04/26 10:52:18;;;;;;;5.15;3.72;;;;;;;17.32;38.59;101667.81;3547832;40;20118;-64
2022/04/26 10:54:58;;;;;;;6.30;3.40;;;;;;;17.18;39.96;101670.72;3554632;40;20097;-65
2022/04/26 10:57:39;;;;;;;7.65;3.58;;;;;;;17.33;40.09;101674.13;3555476;40;20061;-65
2022/04/26 11:00:08;;;;;;;4.72;3.30;;;;;;;17.35;39.71;101673.03;3557577;40;20148;-64
2022/04/26 11:02:42;;;;;;;6.25;3.63;;;;;;;17.11;38.21;101648.59;3555088;40;20057;-65
2022/04/26 11:05:16;;;;;;;5.78;3.63;;;;;;;17.11;38.99;101674.88;3562140;40;20089;-65
2022/04/26 11:07:45;;;;;;;5.55;3.60;;;;;;;16.99;37.39;101671.25;3542607;40;20509;-65
2022/04/26 11:10:15;;;;;;;8.13;3.35;;;;;;;17.03;36.95;101661.91;3559484;40;20060;-65
2022/04/26 11:12:42;;;;;;;6.20;3.53;;;;;;;17.39;38.43;101644.63;3555093;40;20057;-66
2022/04/26 11:15:11;;;;;;;5.65;3.55;;;;;;;17.97;37.88;101662.81;3557106;40;20052;-65
2022/04/26 11:17:39;;;;;;;5.68;3.50;;;;;;;18.25;37.87;101662.31;3554599;40;20055;-65
2022/04/26 11:20:16;;;;;;;7.57;3.75;;;;;;;18.57;37.12;101667.00;3555335;40;20049;-66
2022/04/26 11:22:58;;;;;;;6.30;3.63;;;;;;;18.83;36.67;101656.69;3547177;40;20049;-63
2022/04/26 11:28:17;;;;;;;5.50;3.75;;;;;;;19.31;34.98;101655.38;3557375;40;20163;-66
2022/04/26 11:30:46;;;;;;;5.47;3.80;;;;;;;19.48;35.25;101660.28;3555468;40;20061;-64
2022/04/26 11:33:22;;;;;;;6.00;3.65;;;;;;;19.54;35.06;101656.16;3556080;40;20727;-65
2022/04/26 11:36:01;;;;;;;5.95;3.97;;;;;;;19.49;35.07;101638.31;3555866;40;20059;-65
2022/04/26 11:38:27;;;;;;;6.20;3.92;;;;;;;19.63;33.58;101655.31;3548180;40;20053;-65
2022/04/26 11:41:00;;;;;;;6.88;3.83;;;;;;;19.69;33.72;101647.53;3547526;40;20088;-64
2022/04/26 11:43:33;;;;;;;5.60;4.18;;;;;;;19.75;35.12;101642.53;3555995;40;20071;-65
2022/04/26 11:46:01;;;;;;;5.53;4.10;;;;;;;19.91;33.48;101654.66;3557569;40;20403;-65
2022/04/26 11:48:30;;;;;;;7.60;3.95;;;;;;;20.02;33.48;101667.38;3556880;40;20049;-66
2022/04/26 11:50:59;;;;;;;6.50;3.88;;;;;;;20.18;32.00;101673.22;3559119;40;20060;-65
2022/04/26 11:53:36;;;;;;;6.15;3.90;;;;;;;20.23;32.74;101661.00;3550226;40;20112;-65
2022/04/26 11:56:05;;;;;;;4.88;4.00;;;;;;;20.34;31.22;101677.31;3554671;40;20099;-65
2022/04/26 11:58:32;;;;;;;6.18;3.72;;;;;;;20.34;31.86;101678.16;3552779;40;20335;-65
2022/04/26 12:01:07;;;;;;;6.85;4.28;;;;;;;20.30;31.58;101676.72;3556288;40;20061;-65
2022/04/26 12:03:48;;;;;;;4.70;3.60;;;;;;;20.36;30.65;101686.19;3550778;40;20556;-64
2022/04/26 12:06:19;;;;;;;5.72;4.45;;;;;;;20.22;32.15;101679.25;3555447;40;20062;-65
2022/04/26 12:08:54;;;;;;;5.82;4.47;;;;;;;20.32;32.33;101662.91;3543899;40;20071;-65
2022/04/26 12:11:29;;;;;;;5.22;4.10;;;;;;;20.43;31.29;101676.47;3543589;40;20049;-66
2022/04/26 12:14:06;;;;;;;4.82;3.70;;;;;;;20.58;32.85;101676.97;3555866;40;20721;-65
2022/04/26 12:16:37;;;;;;;7.75;3.80;;;;;;;20.26;30.41;101686.16;3552377;40;20696;-66
2022/04/26 12:19:04;;;;;;;5.38;3.63;;;;;;;20.39;31.31;101683.19;3544968;40;20053;-65
2022/04/26 12:21:47;;;;;;;4.70;3.65;;;;;;;20.53;30.60;101684.75;3554357;40;20049;-66
2022/04/26 12:24:23;;;;;;;7.40;4.18;;;;;;;20.50;30.41;101677.66;3549640;40;20049;-66
2022/04/26 12:27:13;;;;;;;7.35;3.50;;;;;;;20.43;30.30;101683.81;3545824;40;20061;-66
2022/04/26 12:29:44;;;;;;;4.30;3.63;;;;;;;20.02;31.12;101683.75;3553249;40;20252;-66
2022/04/26 12:32:16;;;;;;;7.20;3.70;;;;;;;19.76;31.04;101682.44;3557219;40;20123;-65
2022/04/26 12:34:55;;;;;;;6.80;3.40;;;;;;;19.88;30.92;101681.38;3554801;40;20065;-65
2022/04/26 12:37:23;;;;;;;6.50;3.50;;;;;;;20.04;30.89;101678.16;3555703;40;20064;-66
2022/04/26 12:39:53;;;;;;;5.18;3.25;;;;;;;20.24;29.89;101681.88;3549781;40;20146;-66
2022/04/26 12:42:34;;;;;;;4.38;3.50;;;;;;;20.03;30.74;101681.91;3546437;40;20284;-66
2022/04/26 12:45:05;;;;;;;5.55;3.60;;;;;;;19.59;30.78;101676.56;3556532;40;20390;-66
2022/04/26 12:50:28;;;;;;;6.70;3.70;;;;;;;18.97;31.59;101691.81;3556027;40;20055;-65
2022/04/26 12:53:01;;;;;;;5.40;3.60;;;;;;;18.76;33.69;101680.84;3555606;40;20127;-65
2022/04/26 12:55:38;;;;;;;5.00;3.72;;;;;;;18.57;33.36;101680.59;3548952;40;20076;-66
2022/04/26 12:58:09;;;;;;;7.95;4.05;;;;;;;18.49;33.29;101685.78;3548534;40;20090;-66
2022/04/26 13:00:50;;;;;;;6.93;3.67;;;;;;;19.28;33.18;101688.38;3553923;40;20059;-65
2022/04/26 13:03:20;;;;;;;6.22;3.75;;;;;;;19.99;33.33;101681.31;3556306;40;20055;-66
2022/04/26 13:05:50;;;;;;;5.78;3.75;;;;;;;20.15;32.72;101678.94;3557931;40;20064;-66
2022/04/26 13:08:21;;;;;;;4.85;4.20;;;;;;;20.58;31.56;101677.88;3556709;40;20288;-66
2022/04/26 13:10:48;;;;;;;5.10;3.95;;;;;;;20.76;31.13;101677.16;3556418;40;20053;-66
2022/04/26 13:13:15;;;;;;;5.72;3.95;;;;;;;20.79;31.15;101680.47;3553946;40;20045;-66
2022/04/26 13:15:42;;;;;;;8.10;4.15;;;;;;;20.18;31.96;101686.84;3547193;40;20097;-66
2022/04/26 13:18:10;;;;;;;4.88;3.70;;;;;;;19.68;32.55;101683.13;3557880;40;20055;-66
2022/04/26 13:20:37;;;;;;;9.73;4.10;;;;;;;19.85;32.55;101671.63;3554507;40;20158;-64
2022/04/26 13:23:03;;;;;;;6.45;3.60;;;;;;;20.07;32.21;101659.63;3546861;40;20097;-65
2022/04/26 13:25:29;;;;;;;8.45;3.88;;;;;;;20.02;32.83;101656.47;3546579;40;22176;-66
2022/04/26 13:27:55;;;;;;;6.07;4.07;;;;;;;19.75;33.29;101675.25;3554458;40;20295;-65
2022/04/26 13:30:21;;;;;;;5.70;3.85;;;;;;;19.45;33.02;101687.81;3539469;40;20074;-65
2022/04/26 13:32:47;;;;;;;8.98;4.20;;;;;;;19.78;33.46;101670.41;3555800;40;20048;-65
2022/04/26 13:35:13;;;;;;;10.32;4.35;;;;;;;19.98;33.53;101675.97;3556658;40;20049;-67
2022/04/26 13:37:39;;;;;;;5.78;3.83;;;;;;;19.89;34.70;101672.19;3555415;40;20061;-66
2022/04/26 13:40:07;;;;;;;5.75;4.22;;;;;;;20.16;33.57;101688.84;3557101;40;20050;-65
2022/04/26 13:42:35;;;;;;;4.80;4.00;;;;;;;19.53;33.48;101649.81;3547729;40;20056;-65
2022/04/26 13:45:02;;;;;;;4.45;3.88;;;;;;;19.46;34.76;101675.88;3550319;40;20412;-65
2022/04/26 13:47:29;;;;;;;6.15;3.90;;;;;;;19.20;33.74;101691.75;3546722;40;20057;-65
2022/04/26 13:49:54;;;;;;;5.75;4.05;;;;;;;18.67;35.32;101687.00;3558065;40;20057;-65
2022/04/26 13:52:22;;;;;;;5.65;3.83;;;;;;;18.54;36.38;101689.03;3555961;40;20115;-65
2022/04/26 13:54:49;;;;;;;4.55;3.80;;;;;;;18.69;36.49;101697.81;3557253;40;20707;-64
2022/04/26 13:57:16;;;;;;;7.22;3.88;;;;;;;18.63;35.24;101701.03;3554486;40;20057;-65
2022/04/26 13:59:44;;;;;;;5.40;3.78;;;;;;;18.47;35.21;101688.66;3550555;40;20076;-66
2022/04/26 14:02:11;;;;;;;10.23;3.88;;;;;;;18.42;34.95;101698.19;3548829;40;20158;-65
2022/04/26 14:04:37;;;;;;;4.20;3.60;;;;;;;18.27;35.58;101686.69;3557990;40;20703;-65
2022/04/26 14:07:04;;;;;;;5.00;3.67;;;;;;;18.19;35.68;101700.91;3550245;40;20045;-66
2022/04/26 14:09:31;;;;;;;8.25;3.70;;;;;;;18.00;36.16;101696.06;3559753;40;20128;-65
2022/04/26 14:11:57;;;;;;;7.05;3.95;;;;;;;17.82;36.48;101686.63;3557575;40;20122;-65
2022/04/26 14:22:42;;;;;;;3.80;3.38;;;;;;;17.18;35.90;101687.88;3548622;40;20082;-66
2022/04/26 14:25:10;;;;;;;4.00;3.40;;;;;;;17.20;36.04;101690.50;3556432;40;20069;-65
2022/04/26 14:27:40;;;;;;;7.13;3.50;;;;;;;17.14;36.01;101690.97;3553885;40;20042;-65
2022/04/26 14:30:09;;;;;;;4.95;3.78;;;;;;;17.24;36.25;101702.84;3543025;40;20238;-66
2022/04/26 14:32:35;;;;;;;5.22;3.40;;;;;;;17.06;35.60;101672.53;3555875;40;20056;-64
2022/04/26 14:35:02;;;;;;;5.30;3.35;;;;;;;17.19;35.62;101696.94;3548011;40;20049;-65
2022/04/26 14:37:28;;;;;;;3.30;3.00;;;;;;;17.12;34.89;101693.78;3557684;40;20054;-64
2022/04/26 14:39:53;;;;;;;4.18;3.25;;;;;;;17.06;35.87;101694.28;3548585;40;20730;-66
2022/04/26 14:42:20;;;;;;;4.80;3.30;;;;;;;17.12;35.88;101710.06;3556583;40;20056;-65
2022/04/26 14:44:46;;;;;;;4.72;3.40;;;;;;;16.91;35.79;101685.41;3547837;40;20419;-65
2022/04/26 14:47:13;;;;;;;9.07;6.30;;;;;;;16.94;36.82;101700.63;3550236;40;20061;-64
2022/04/26 14:49:39;;;;;;;5.60;3.50;;;;;;;16.83;36.37;101695.09;3546416;40;20134;-65
2022/04/26 14:52:09;;;;;;;7.30;3.88;;;;;;;16.87;36.81;101700.22;3556186;40;20060;-65
2022/04/26 14:54:35;;;;;;;4.88;3.42;;;;;;;16.81;37.29;101699.78;3549619;40;20057;-65
2022/04/26 14:57:01;;;;;;;6.63;3.58;;;;;;;16.67;36.79;101700.78;3555218;40;20057;-65
2022/04/26 14:59:28;;;;;;;6.22;3.72;;;;;;;16.74;37.76;101712.91;3555899;40;20299;-66
2022/04/26 15:01:54;;;;;;;4.38;3.55;;;;;;;16.67;37.57;101709.78;3541390;40;20153;-65
2022/04/26 15:04:23;;;;;;;3.92;3.38;;;;;;;16.76;38.29;101708.28;3548213;40;20480;-66
2022/04/26 15:06:49;;;;;;;4.50;3.58;;;;;;;16.27;38.29;101600.59;3553951;40;20094;-66
2022/04/26 15:17:30;;;;;;;4.63;3.40;;;;;;;17.13;35.66;101710.97;3543055;40;20055;-66
2022/04/26 15:19:56;;;;;;;6.15;3.30;;;;;;;17.21;36.01;101708.53;3543143;40;20049;-65
2022/04/26 15:22:23;;;;;;;3.47;3.13;;;;;;;17.22;35.65;101710.28;3557331;40;20390;-65
2022/04/26 15:24:51;;;;;;;4.47;3.28;;;;;;;17.28;36.23;101682.59;3556518;40;20486;-66
2022/04/26 15:27:18;;;;;;;3.92;3.38;;;;;;;17.63;35.01;101706.22;3553606;40;20053;-65
2022/04/26 15:29:45;;;;;;;5.22;3.25;;;;;;;17.80;36.01;101705.81;3554920;40;20068;-67
2022/04/26 15:32:11;;;;;;;5.40;3.45;;;;;;;17.92;35.76;101695.81;3541620;40;20088;-66
2022/04/26 15:34:38;;;;;;;4.78;3.00;;;;;;;17.86;33.90;101697.16;3552252;40;20061;-66
2022/04/26 15:37:05;;;;;;;5.32;2.90;;;;;;;17.75;33.15;101696.22;3548876;40;20065;-64
2022/04/26 15:39:32;;;;;;;5.20;2.90;;;;;;;16.88;33.60;101555.28;3556689;40;20316;-65